Flight Track Log - Related Links

Times and Time Zones

All times are in EST time to prevent confusion due to time zone crossing. See the SBE67 flight status page for this flight to view local times or setup timezone preferences in your user account.

Time Position Orientation Groundspeed Altitude Reporting Facility
EST Latitude Longitude Course Direction KTS MPH feet Rate Location/Type
Tue 05:53:20 PM 29.9661 -95.3456 46° Northeast 155 178 800  Level Houston Center
Tue 05:54:28 PM 30.0003 -95.3050 46° Northeast 250 288 3,200 2,296 Climbing Houston Center
Tue 05:55:15 PM 30.0497 -95.3000 North 264 304 5,200 3,344 Climbing Houston Center
Tue 05:55:29 PM 30.0822 -95.3072 349° North 283 326 6,600 3,484 Climbing Houston Center
Tue 05:56:17 PM 30.1250 -95.3214 344° North 278 320 8,800 2,836 Climbing Houston Center
Tue 05:57:19 PM 30.2150 -95.3564 341° North 283 326 11,800 2,516 Climbing Houston Center
Tue 05:58:21 PM 30.3050 -95.3869 344° North 329 379 14,000 2,468 Climbing Houston Center
Tue 05:59:23 PM 30.3950 -95.4172 344° North 337 388 16,900 2,613 Climbing Houston Center
Tue 06:00:25 PM 30.4825 -95.4494 342° North 331 381 19,400 1,839 Climbing Houston Center
Tue 06:01:27 PM 30.5739 -95.4803 344° North 339 390 20,700 1,161 Climbing Houston Center
Tue 06:02:29 PM 30.6800 -95.5108 346° North 362 417 21,800 629 Climbing Houston Center
Tue 06:03:31 PM 30.7908 -95.5328 350° North 389 448 22,000 96 Climbing Houston Center
Tue 06:04:34 PM 30.9175 -95.5625 349° North 414 476 22,000  Level Houston Center
Tue 06:05:36 PM 31.0389 -95.5908 349° North 426 490 22,000  Level Houston Center
Tue 06:06:38 PM 31.1814 -95.6222 349° North 435 501 22,000  Level Houston Center
Tue 06:07:40 PM 31.2819 -95.6467 348° North 440 506 22,000 -387 Level Houston Center
Tue 06:08:42 PM 31.4131 -95.6997 341° North 445 512 21,200 -677 Descending Houston Center
Tue 06:09:44 PM 31.5306 -95.7842 329° Northwest 422 486 20,600 -581 Descending Houston Center
Tue 06:10:46 PM 31.6086 -95.8725 316° Northwest 427 491 20,000 -667 Descending Houston Center
Tue 06:11:50 PM 31.7092 -95.9783 318° Northwest 426 490 19,200 -857 Descending Fort Worth Center
Tue 06:12:52 PM 31.8006 -96.0733 319° Northwest 427 491 18,200 -1,839 Descending Fort Worth Center
Tue 06:13:54 PM 31.8842 -96.1606 318° Northwest 408 470 15,400 -2,081 Descending Fort Worth Center
Tue 06:14:56 PM 31.9606 -96.2397 319° Northwest 387 445 13,900 -1,403 Descending Fort Worth Center
Tue 06:15:58 PM 32.0331 -96.3156 318° Northwest 353 406 12,500 -1,548 Descending Fort Worth Center
Tue 06:17:00 PM 32.1150 -96.4039 318° Northwest 333 383 10,700 -1,306 Descending Fort Worth Center
Tue 06:18:02 PM 32.1722 -96.4644 318° Northwest 276 318 9,800 -823 Descending Fort Worth Center
Tue 06:19:04 PM 32.2350 -96.5294 319° Northwest 271 312 9,000 -384 Descending Fort Worth Center
Tue 06:20:07 PM 32.2917 -96.5903 318° Northwest 273 314 9,000 -480 Level Fort Worth Center
Tue 06:21:09 PM 32.3481 -96.6447 321° Northwest 263 303 8,000 -1,161 Descending Fort Worth Center
Tue 06:22:11 PM 32.3742 -96.7267 291° West 248 285 6,600 -1,258 Descending Fort Worth Center
Tue 06:23:13 PM 32.3919 -96.8058 285° West 249 287 5,400 -774 Descending Fort Worth Center
Tue 06:24:15 PM 32.4128 -96.8858 287° West 239 275 5,000 -677 Descending Fort Worth Center
Tue 06:25:17 PM 32.4544 -96.9508 307° West 249 287 4,000 -484 Descending Fort Worth Center
Tue 06:26:19 PM 32.5156 -97.0144 319° Northwest 270 311 4,000 -97 Level Fort Worth Center
Tue 06:27:21 PM 32.5664 -97.0747 315° West 259 298 3,800 -484 Descending Fort Worth Center
Tue 06:28:23 PM 32.6192 -97.1361 316° Northwest 250 288 3,000 -516 Descending Fort Worth Center
Tue 06:28:54 PM 32.6500 -97.1667 320° Northwest 219 252 3,000  Level Dallas / Fort Worth TRACON
Tue 06:29:25 PM 32.6611 -97.1839 307° West 208 239 3,000  Level Fort Worth Center
Tue 06:30:28 PM 32.6992 -97.2278 316° Northwest 180 207 3,000  Level Fort Worth Center
Tue 06:31:30 PM 32.7458 -97.2533 335° Northwest 193 222 3,000  Level Fort Worth Center
Tue 06:32:32 PM 32.8019 -97.2653 350° North 191 220 3,000  Level Fort Worth Center
Tue 06:33:34 PM 32.8522 -97.2769 349° North 186 214 3,000 -242 Level Fort Worth Center
Tue 06:34:36 PM 32.8894 -97.3083 325° Northwest 174 200 2,500 -581 Descending Fort Worth Center
Tue 06:35:38 PM 32.8814 -97.3572 259° West 145 167 1,800 -677 Descending Fort Worth Center
Tue 06:36:40 PM 32.8458 -97.3661 192° South 132 152 1,100 -532 Descending Fort Worth Center
Tue 06:37:42 PM 32.8161 -97.3528 159° South 122 140 700 -387 Descending Fort Worth Center

Login

Don't have an account? Register now (free) for customized features, flight alerts, and more!